Time;durP1;ratioP1;P1;durP2;ratioP2;P2;SDS_P1;SDS_P2;PMS_P1;PMS_P2;Temp;Humidity;BMP_temperature;BMP_pressure;BME280_temperature;BME280_humidity;BME280_pressure;Samples;Min_cycle;Max_cycle;Signal;HPM_P1;HPM_P2
2021/06/16 00:00:32;;;;;;;16.08;4.35;;;15.30;68.70;;;;;;4939484;29;20054;-57
2021/06/16 00:02:57;;;;;;;16.05;4.13;;;15.30;68.70;;;;;;4938579;28;20035;-58
2021/06/16 00:05:26;;;;;;;19.65;4.18;;;15.30;68.90;;;;;;4939698;29;20070;-57
2021/06/16 00:07:53;;;;;;;15.82;6.38;;;15.30;68.90;;;;;;4940133;29;20043;-58
2021/06/16 00:10:25;;;;;;;11.13;4.30;;;15.20;68.90;;;;;;4921078;29;20039;-57
2021/06/16 00:12:51;;;;;;;9.85;3.72;;;15.20;68.90;;;;;;4939503;29;20036;-57
2021/06/16 00:15:24;;;;;;;11.43;4.22;;;15.10;69.20;;;;;;4939867;29;20621;-57
2021/06/16 00:17:51;;;;;;;16.80;4.53;;;15.10;69.60;;;;;;4940058;29;20960;-57
2021/06/16 00:20:17;;;;;;;15.05;3.83;;;15.10;69.70;;;;;;4938542;29;20047;-57
2021/06/16 00:22:43;;;;;;;12.50;4.82;;;15.10;69.90;;;;;;4940061;29;20146;-57
2021/06/16 00:25:10;;;;;;;12.07;4.80;;;15.00;70.00;;;;;;4939451;29;20036;-57
2021/06/16 00:27:36;;;;;;;18.08;7.22;;;15.10;70.30;;;;;;4939854;29;20040;-57
2021/06/16 00:30:05;;;;;;;15.38;6.60;;;15.00;70.30;;;;;;4938886;29;20665;-57
2021/06/16 00:32:31;;;;;;;15.00;6.22;;;15.00;70.50;;;;;;4938506;29;20036;-58
2021/06/16 00:34:57;;;;;;;15.55;6.82;;;15.00;70.50;;;;;;4939562;29;20493;-58
2021/06/16 00:37:23;;;;;;;12.77;4.43;;;15.00;70.60;;;;;;4939041;29;20043;-58
2021/06/16 00:39:49;;;;;;;10.82;3.50;;;15.00;70.40;;;;;;4938720;29;20046;-58
2021/06/16 00:42:15;;;;;;;13.05;3.72;;;15.00;70.40;;;;;;4939467;29;20114;-58
2021/06/16 00:44:41;;;;;;;9.77;4.00;;;15.00;70.50;;;;;;4939638;29;20055;-58
2021/06/16 00:47:06;;;;;;;13.13;3.80;;;14.90;70.60;;;;;;4940107;29;20047;-58
2021/06/16 00:49:32;;;;;;;9.57;4.22;;;15.00;70.80;;;;;;4938122;29;20046;-58
2021/06/16 00:51:58;;;;;;;12.45;3.33;;;15.00;70.90;;;;;;4940177;29;21050;-58
2021/06/16 00:54:24;;;;;;;11.65;4.28;;;15.00;71.00;;;;;;4939753;29;20562;-58
2021/06/16 00:56:49;;;;;;;13.88;4.93;;;15.00;71.00;;;;;;4939990;29;20233;-58
2021/06/16 00:59:15;;;;;;;11.93;4.78;;;15.00;71.00;;;;;;4937549;29;20039;-58
2021/06/16 01:01:48;;;;;;;12.27;4.03;;;15.00;70.90;;;;;;4939322;29;20047;-57
2021/06/16 01:04:24;;;;;;;10.60;4.05;;;15.00;70.80;;;;;;4939581;29;20092;-58
2021/06/16 01:07:04;;;;;;;13.45;4.05;;;14.90;70.40;;;;;;4938327;29;20605;-58
2021/06/16 01:09:39;;;;;;;12.20;4.28;;;14.90;70.30;;;;;;4939120;29;20049;-58
2021/06/16 01:12:12;;;;;;;14.77;4.47;;;15.00;70.40;;;;;;4938408;29;20087;-58
2021/06/16 01:14:41;;;;;;;12.93;5.75;;;15.00;70.60;;;;;;4941060;28;20083;-58
2021/06/16 01:17:09;;;;;;;10.93;4.45;;;15.00;71.00;;;;;;4942303;29;20043;-57
2021/06/16 01:19:51;;;;;;;11.27;3.97;;;15.00;71.20;;;;;;4941767;29;20567;-57
2021/06/16 01:22:36;;;;;;;12.85;4.25;;;14.90;71.30;;;;;;4942559;29;20067;-58
2021/06/16 01:25:07;;;;;;;10.10;3.65;;;14.90;71.70;;;;;;4943072;29;20075;-58
2021/06/16 01:27:34;;;;;;;12.50;4.45;;;14.80;72.10;;;;;;4942837;29;20035;-57
2021/06/16 01:30:02;;;;;;;15.48;4.68;;;14.80;72.40;;;;;;4942762;29;20035;-58
2021/06/16 01:32:28;;;;;;;11.25;3.80;;;14.70;72.80;;;;;;4943283;29;20040;-58
2021/06/16 01:34:54;;;;;;;11.52;4.93;;;14.70;73.20;;;;;;4942032;29;20053;-58
2021/06/16 01:37:20;;;;;;;12.15;5.32;;;14.70;73.70;;;;;;4934835;29;20548;-58
2021/06/16 01:39:46;;;;;;;12.55;5.97;;;14.60;74.00;;;;;;4942522;29;20153;-58
2021/06/16 01:42:17;;;;;;;14.77;7.45;;;14.60;74.40;;;;;;4943687;29;20491;-58
2021/06/16 01:44:45;;;;;;;14.95;7.55;;;14.50;74.60;;;;;;4941522;29;22218;-58
2021/06/16 01:47:12;;;;;;;14.50;6.82;;;14.50;74.80;;;;;;4942630;29;20043;-58
2021/06/16 01:49:39;;;;;;;19.40;10.07;;;14.50;75.00;;;;;;4925381;29;20544;-58
2021/06/16 01:52:05;;;;;;;20.05;11.90;;;14.50;75.20;;;;;;4941974;29;20063;-58
2021/06/16 01:54:32;;;;;;;21.33;12.50;;;14.50;75.40;;;;;;4940526;29;20601;-58
2021/06/16 01:57:00;;;;;;;19.95;14.30;;;14.50;75.60;;;;;;4942969;29;21036;-57
2021/06/16 01:59:26;;;;;;;24.90;13.90;;;14.50;75.80;;;;;;4943119;29;20121;-58
2021/06/16 02:01:53;;;;;;;19.42;10.65;;;14.50;75.90;;;;;;4941666;29;20113;-58
2021/06/16 02:04:19;;;;;;;18.95;12.02;;;14.40;76.10;;;;;;4942717;28;20043;-59
2021/06/16 02:06:53;;;;;;;13.02;7.72;;;14.40;76.10;;;;;;4941102;29;20040;-58
2021/06/16 02:09:23;;;;;;;15.45;5.47;;;14.40;76.20;;;;;;4941998;29;20051;-58
2021/06/16 02:11:49;;;;;;;10.38;3.45;;;14.40;76.30;;;;;;4943198;29;20095;-58
2021/06/16 02:14:17;;;;;;;11.43;3.03;;;14.40;76.50;;;;;;4941519;29;20035;-58
2021/06/16 02:17:14;;;;;;;13.55;3.17;;;14.40;76.70;;;;;;4941562;29;20059;-59
2021/06/16 02:19:41;;;;;;;9.57;3.17;;;14.40;76.70;;;;;;4940107;29;20075;-58
2021/06/16 02:22:08;;;;;;;8.40;3.00;;;14.40;77.00;;;;;;4940459;29;20065;-60
2021/06/16 02:24:35;;;;;;;11.32;3.08;;;14.40;77.10;;;;;;4940483;28;20569;-58
2021/06/16 02:27:00;;;;;;;9.35;3.10;;;14.40;77.00;;;;;;4940782;29;20122;-58
2021/06/16 02:29:29;;;;;;;8.18;3.58;;;14.30;76.90;;;;;;4941190;29;20117;-58
2021/06/16 02:31:56;;;;;;;12.13;3.30;;;14.30;76.70;;;;;;4940320;29;20427;-58
2021/06/16 02:34:23;;;;;;;12.27;3.22;;;14.30;76.70;;;;;;4941268;29;20063;-57
2021/06/16 02:36:52;;;;;;;9.50;3.42;;;14.20;76.60;;;;;;4942697;29;20077;-59
2021/06/16 02:39:28;;;;;;;7.13;3.60;;;14.20;76.70;;;;;;4939541;29;20039;-59
2021/06/16 02:41:55;;;;;;;10.65;3.35;;;14.20;76.90;;;;;;4941260;29;20039;-58
2021/06/16 02:44:23;;;;;;;10.55;3.90;;;14.20;77.20;;;;;;4940304;29;20425;-57
2021/06/16 02:46:52;;;;;;;11.93;4.38;;;14.20;77.30;;;;;;4941827;29;20035;-58
2021/06/16 02:49:28;;;;;;;11.70;4.45;;;14.10;77.40;;;;;;4939529;29;20043;-57
2021/06/16 02:51:55;;;;;;;11.52;4.28;;;14.10;77.90;;;;;;4941930;29;20114;-57
2021/06/16 02:54:21;;;;;;;11.40;4.40;;;14.00;78.10;;;;;;4941821;29;20080;-58
2021/06/16 02:56:48;;;;;;;12.73;4.00;;;14.00;78.10;;;;;;4938908;29;20047;-58
2021/06/16 02:59:15;;;;;;;9.98;4.13;;;14.00;78.30;;;;;;4939731;29;20491;-58
2021/06/16 03:01:44;;;;;;;12.80;5.13;;;14.00;78.60;;;;;;4939479;29;20174;-58
2021/06/16 03:04:12;;;;;;;12.40;4.28;;;14.00;78.80;;;;;;4941191;28;20055;-58
2021/06/16 03:06:38;;;;;;;12.13;4.97;;;13.90;78.80;;;;;;4939300;29;20051;-58
2021/06/16 03:09:04;;;;;;;12.05;5.05;;;13.90;79.00;;;;;;4940298;29;20046;-58
2021/06/16 03:11:33;;;;;;;12.95;6.47;;;13.90;79.20;;;;;;4940799;29;20040;-58
2021/06/16 03:14:00;;;;;;;12.63;7.18;;;13.90;79.60;;;;;;4940108;29;20127;-58
2021/06/16 03:16:27;;;;;;;15.48;11.07;;;13.90;79.80;;;;;;4939585;29;20043;-58
2021/06/16 03:18:53;;;;;;;23.45;14.32;;;13.80;79.70;;;;;;4940366;29;20038;-58
2021/06/16 03:21:19;;;;;;;25.25;15.57;;;13.90;79.80;;;;;;4939821;29;20043;-58
2021/06/16 03:23:48;;;;;;;20.25;12.27;;;13.90;79.60;;;;;;4941403;29;20071;-58
2021/06/16 03:26:17;;;;;;;20.05;11.77;;;13.90;79.60;;;;;;4938354;29;20043;-58
2021/06/16 03:28:44;;;;;;;18.00;12.25;;;13.90;79.50;;;;;;4939177;29;20032;-58
2021/06/16 03:31:12;;;;;;;14.35;7.00;;;13.90;79.50;;;;;;4941585;29;20061;-58
2021/06/16 03:33:40;;;;;;;9.52;4.78;;;14.00;79.40;;;;;;4938305;29;20046;-58
2021/06/16 03:36:07;;;;;;;13.20;4.72;;;14.00;79.40;;;;;;4940111;28;20138;-59
2021/06/16 03:38:37;;;;;;;16.98;5.40;;;14.00;79.30;;;;;;4939704;29;20410;-58
2021/06/16 03:41:04;;;;;;;11.55;5.32;;;14.00;79.40;;;;;;4940171;29;20043;-59
2021/06/16 03:43:31;;;;;;;11.73;6.50;;;14.00;79.50;;;;;;4938961;29;20044;-58
2021/06/16 03:45:58;;;;;;;11.95;5.43;;;14.00;79.40;;;;;;4940786;29;20043;-58
2021/06/16 03:48:25;;;;;;;10.82;5.18;;;14.10;79.40;;;;;;4939892;29;20563;-59
2021/06/16 03:50:52;;;;;;;11.27;5.00;;;14.10;79.40;;;;;;4940424;29;20046;-58
2021/06/16 03:53:19;;;;;;;13.25;4.72;;;14.10;79.30;;;;;;4922490;29;20046;-58
2021/06/16 03:55:49;;;;;;;14.55;5.32;;;14.10;79.40;;;;;;4940057;29;20489;-58
2021/06/16 03:58:16;;;;;;;13.60;5.28;;;14.20;79.20;;;;;;4939039;29;20090;-59
2021/06/16 04:00:43;;;;;;;8.70;4.18;;;14.20;79.00;;;;;;4938682;29;20088;-58
2021/06/16 04:03:11;;;;;;;12.73;4.45;;;14.20;79.00;;;;;;4939037;29;20114;-58
2021/06/16 04:05:37;;;;;;;12.23;4.85;;;14.30;78.80;;;;;;4940506;29;20039;-58
2021/06/16 04:08:06;;;;;;;11.40;5.55;;;14.20;78.60;;;;;;4938867;29;20494;-58
2021/06/16 04:10:32;;;;;;;12.57;5.60;;;14.30;78.70;;;;;;4940002;29;20063;-58
2021/06/16 04:12:58;;;;;;;14.45;5.32;;;14.30;78.80;;;;;;4939231;29;20043;-57
2021/06/16 04:15:24;;;;;;;9.93;4.40;;;14.30;78.50;;;;;;4939022;29;20039;-57
2021/06/16 04:17:53;;;;;;;10.07;5.00;;;14.30;78.40;;;;;;4939580;29;20129;-57
2021/06/16 04:20:19;;;;;;;16.10;5.00;;;14.40;78.30;;;;;;4940240;29;20774;-57
2021/06/16 04:22:45;;;;;;;11.30;4.53;;;14.40;78.20;;;;;;4940459;29;20039;-57
2021/06/16 04:25:12;;;;;;;11.02;5.10;;;14.40;78.20;;;;;;4939003;29;20055;-57
2021/06/16 04:27:38;;;;;;;12.25;4.18;;;14.40;78.20;;;;;;4938712;29;20043;-57
2021/06/16 04:30:06;;;;;;;11.02;4.47;;;14.50;78.20;;;;;;4938371;29;20036;-57
2021/06/16 04:32:32;;;;;;;10.05;4.57;;;14.50;78.10;;;;;;4939252;29;20065;-57
2021/06/16 04:34:58;;;;;;;12.85;5.57;;;14.40;78.20;;;;;;4939094;29;20881;-58
2021/06/16 04:37:23;;;;;;;13.13;4.95;;;14.40;78.00;;;;;;4938720;29;20044;-57
2021/06/16 04:39:49;;;;;;;19.20;4.78;;;14.40;77.80;;;;;;4939914;29;20035;-57
2021/06/16 04:42:15;;;;;;;11.57;4.70;;;14.40;77.80;;;;;;4941004;29;20043;-58
2021/06/16 04:44:41;;;;;;;13.27;5.10;;;14.40;78.00;;;;;;4938127;29;20039;-58
2021/06/16 04:47:08;;;;;;;10.15;4.65;;;14.40;78.10;;;;;;4938998;29;20039;-58
2021/06/16 04:49:34;;;;;;;11.13;4.22;;;14.40;77.50;;;;;;4924036;29;20134;-58
2021/06/16 04:52:00;;;;;;;10.90;4.55;;;14.40;77.50;;;;;;4942805;29;20913;-58
2021/06/16 04:54:26;;;;;;;8.23;4.57;;;14.40;76.80;;;;;;4943310;29;20051;-58
2021/06/16 04:56:52;;;;;;;11.25;4.47;;;14.50;76.90;;;;;;4943582;29;20543;-58
2021/06/16 04:59:17;;;;;;;9.98;4.30;;;14.50;76.80;;;;;;4943449;29;20035;-59
2021/06/16 05:01:43;;;;;;;8.15;4.03;;;14.50;76.50;;;;;;4941848;29;20472;-58
2021/06/16 05:04:09;;;;;;;12.63;4.18;;;14.50;76.70;;;;;;4942750;28;20483;-58
2021/06/16 05:06:35;;;;;;;12.32;4.47;;;14.50;75.90;;;;;;4941713;29;20047;-58
2021/06/16 05:09:01;;;;;;;11.45;4.75;;;14.50;75.90;;;;;;4924947;29;20137;-58
2021/06/16 05:11:27;;;;;;;15.65;4.57;;;14.50;75.90;;;;;;4942354;29;20038;-58
2021/06/16 05:13:53;;;;;;;6.90;4.30;;;14.50;76.20;;;;;;4942929;29;20115;-57
2021/06/16 05:16:19;;;;;;;10.77;4.22;;;14.50;76.40;;;;;;4943743;29;20115;-58
2021/06/16 05:18:47;;;;;;;19.80;5.22;;;14.50;76.10;;;;;;4942167;29;20035;-57
2021/06/16 05:21:13;;;;;;;7.95;4.45;;;14.40;76.50;;;;;;4941490;29;20039;-58
2021/06/16 05:23:39;;;;;;;10.95;4.60;;;14.50;76.40;;;;;;4925399;29;20039;-58
2021/06/16 05:26:05;;;;;;;14.38;5.25;;;14.50;76.50;;;;;;4909720;29;20047;-58
2021/06/16 05:28:31;;;;;;;10.90;4.20;;;14.50;76.60;;;;;;4942528;29;20110;-57
2021/06/16 05:30:57;;;;;;;10.15;3.78;;;14.50;76.30;;;;;;4943356;29;20051;-58
2021/06/16 05:33:23;;;;;;;11.85;4.25;;;14.60;76.10;;;;;;4943545;29;20491;-58
2021/06/16 05:35:48;;;;;;;8.65;4.10;;;14.60;76.00;;;;;;4942355;29;20043;-59
2021/06/16 05:38:14;;;;;;;10.65;4.00;;;14.60;76.00;;;;;;4942520;29;20086;-58
2021/06/16 05:40:42;;;;;;;10.07;3.95;;;14.70;75.80;;;;;;4942370;29;20098;-58
2021/06/16 05:43:07;;;;;;;10.80;4.03;;;14.70;76.20;;;;;;4942904;29;20042;-58
2021/06/16 05:45:34;;;;;;;13.85;4.85;;;14.70;76.10;;;;;;4942488;29;20043;-58
2021/06/16 05:48:00;;;;;;;11.25;4.63;;;14.80;76.30;;;;;;4924413;29;20133;-59
2021/06/16 05:50:26;;;;;;;17.02;5.18;;;14.90;75.80;;;;;;4942543;29;20032;-59
2021/06/16 05:52:52;;;;;;;10.32;4.53;;;14.90;75.80;;;;;;4943041;29;20075;-59
2021/06/16 05:55:17;;;;;;;8.50;4.05;;;14.90;76.10;;;;;;4941083;29;20074;-59
2021/06/16 05:57:43;;;;;;;10.43;4.22;;;15.00;76.00;;;;;;4940634;29;20094;-57
2021/06/16 06:00:10;;;;;;;12.82;3.78;;;15.10;76.10;;;;;;4940736;28;22332;-58
2021/06/16 06:02:36;;;;;;;9.00;4.15;;;15.20;76.10;;;;;;4941656;28;20161;-58
2021/06/16 06:05:03;;;;;;;15.10;4.90;;;15.20;75.90;;;;;;4940287;29;20051;-59
2021/06/16 06:07:29;;;;;;;12.80;4.32;;;15.30;75.50;;;;;;4942278;29;20039;-58
2021/06/16 06:09:55;;;;;;;11.10;4.68;;;15.40;75.20;;;;;;4943178;29;20050;-59
2021/06/16 06:12:21;;;;;;;16.15;4.18;;;15.50;75.00;;;;;;4941177;29;20046;-59
2021/06/16 06:14:47;;;;;;;11.30;4.28;;;15.50;75.00;;;;;;4941042;29;20150;-59
2021/06/16 06:17:12;;;;;;;8.95;4.15;;;15.50;75.60;;;;;;4942233;29;20062;-58
2021/06/16 06:19:38;;;;;;;8.95;4.15;;;15.60;75.20;;;;;;4923920;29;20046;-58
2021/06/16 06:22:04;;;;;;;11.07;4.70;;;15.70;74.80;;;;;;4941279;29;20047;-59
2021/06/16 06:24:30;;;;;;;11.55;4.55;;;15.70;74.70;;;;;;4941838;29;20051;-59
2021/06/16 06:26:56;;;;;;;11.50;4.80;;;15.80;75.00;;;;;;4941767;29;20054;-59
2021/06/16 06:29:23;;;;;;;10.13;4.85;;;15.90;74.90;;;;;;4924199;29;22300;-59
2021/06/16 06:31:49;;;;;;;10.85;4.50;;;16.00;75.00;;;;;;4940647;29;20062;-59
2021/06/16 06:34:15;;;;;;;12.80;5.38;;;16.10;74.70;;;;;;4940751;29;20047;-58
2021/06/16 06:36:40;;;;;;;9.63;4.43;;;16.20;74.60;;;;;;4941594;29;20043;-58
2021/06/16 06:39:06;;;;;;;8.15;4.90;;;16.40;74.20;;;;;;4940470;29;20039;-59
2021/06/16 06:41:32;;;;;;;10.07;4.50;;;16.60;73.40;;;;;;4940925;29;20039;-59
2021/06/16 06:43:58;;;;;;;13.77;3.63;;;16.70;73.50;;;;;;4941932;29;20551;-60
2021/06/16 06:46:24;;;;;;;7.28;4.00;;;17.00;73.20;;;;;;4941966;29;20048;-60
2021/06/16 06:48:50;;;;;;;9.18;4.50;;;17.20;72.00;;;;;;4940185;29;20042;-63
2021/06/16 06:51:16;;;;;;;13.32;4.30;;;17.40;71.70;;;;;;4940975;29;20540;-64
2021/06/16 06:53:41;;;;;;;10.43;4.53;;;17.50;71.30;;;;;;4941137;29;20407;-63
2021/06/16 06:56:07;;;;;;;10.95;4.75;;;17.70;70.80;;;;;;4938610;28;20039;-63
2021/06/16 06:58:34;;;;;;;10.73;3.92;;;17.80;70.10;;;;;;4940038;29;20039;-64
2021/06/16 07:00:59;;;;;;;8.88;3.97;;;18.00;69.90;;;;;;4939629;29;20043;-63
2021/06/16 07:03:26;;;;;;;15.13;4.47;;;18.10;69.40;;;;;;4940252;28;20044;-63
2021/06/16 07:05:53;;;;;;;8.90;4.03;;;18.30;69.30;;;;;;4940668;28;20059;-63
2021/06/16 07:08:19;;;;;;;13.90;4.78;;;18.40;69.20;;;;;;4941237;29;20142;-63
2021/06/16 07:10:45;;;;;;;11.20;5.03;;;18.60;68.70;;;;;;4940908;28;20150;-63
2021/06/16 07:13:11;;;;;;;9.13;4.40;;;18.80;68.40;;;;;;4940009;29;20058;-63
2021/06/16 07:15:37;;;;;;;11.68;4.90;;;19.00;67.90;;;;;;4940406;29;20077;-64
2021/06/16 07:18:03;;;;;;;14.00;4.75;;;19.20;67.70;;;;;;4922129;29;20063;-64
2021/06/16 07:20:29;;;;;;;12.80;4.40;;;19.30;67.00;;;;;;4941056;29;20474;-64
2021/06/16 07:22:54;;;;;;;11.63;4.43;;;19.40;66.10;;;;;;4942981;29;20433;-64
2021/06/16 07:25:21;;;;;;;13.93;4.57;;;19.60;66.30;;;;;;4940548;29;20077;-64
2021/06/16 07:27:48;;;;;;;9.10;5.15;;;19.70;65.60;;;;;;4932172;29;20071;-63
2021/06/16 07:30:15;;;;;;;9.38;3.88;;;19.80;65.30;;;;;;4940624;29;20043;-64
2021/06/16 07:32:43;;;;;;;9.85;4.50;;;19.90;64.80;;;;;;4924626;29;20197;-63
2021/06/16 07:35:10;;;;;;;12.70;4.63;;;19.90;64.40;;;;;;4940779;29;20043;-65
2021/06/16 07:37:37;;;;;;;20.88;13.65;;;20.00;64.80;;;;;;4940875;29;20090;-61
2021/06/16 07:40:06;;;;;;;12.30;5.50;;;20.00;65.10;;;;;;4939225;29;20032;-61
2021/06/16 07:42:32;;;;;;;14.75;4.82;;;20.10;64.70;;;;;;4923491;29;20051;-62
2021/06/16 07:44:57;;;;;;;10.85;4.40;;;20.10;64.20;;;;;;4940460;29;20050;-62
2021/06/16 07:47:24;;;;;;;15.20;5.07;;;20.10;63.90;;;;;;4940758;29;20400;-62
2021/06/16 07:49:50;;;;;;;8.65;4.57;;;20.20;63.50;;;;;;4938821;29;21061;-62
2021/06/16 07:52:15;;;;;;;9.77;4.45;;;20.30;63.20;;;;;;4939071;29;20488;-62
2021/06/16 07:54:41;;;;;;;13.43;4.85;;;20.40;62.40;;;;;;4938177;29;20043;-62
2021/06/16 07:57:07;;;;;;;11.35;5.10;;;20.50;61.90;;;;;;4939300;29;20118;-61
2021/06/16 07:59:33;;;;;;;12.60;4.80;;;20.60;62.20;;;;;;4938620;29;20036;-62
2021/06/16 08:01:59;;;;;;;9.68;4.07;;;20.70;61.40;;;;;;4939481;29;20050;-61
2021/06/16 08:04:25;;;;;;;10.05;4.38;;;20.80;60.60;;;;;;4921499;29;20118;-65
2021/06/16 08:06:51;;;;;;;10.93;4.15;;;20.90;60.60;;;;;;4938792;29;20047;-63
2021/06/16 08:09:18;;;;;;;7.05;4.15;;;21.00;59.90;;;;;;4939744;29;20039;-63
2021/06/16 08:11:43;;;;;;;7.65;3.45;;;21.20;59.80;;;;;;4940334;29;20452;-63
2021/06/16 08:14:09;;;;;;;12.73;4.22;;;21.30;60.20;;;;;;4938322;29;20050;-63
2021/06/16 08:16:35;;;;;;;10.20;4.43;;;21.50;59.70;;;;;;4938845;29;20044;-63
2021/06/16 08:19:01;;;;;;;9.20;3.88;;;21.80;59.10;;;;;;4940502;29;20058;-63
2021/06/16 08:21:27;;;;;;;13.70;3.70;;;21.90;58.70;;;;;;4940142;29;22278;-62
2021/06/16 08:23:53;;;;;;;10.23;3.92;;;22.00;58.40;;;;;;4941243;28;20090;-62
2021/06/16 08:26:19;;;;;;;11.95;4.70;;;22.10;58.10;;;;;;4944206;29;20035;-62
2021/06/16 08:28:45;;;;;;;10.32;4.78;;;22.30;58.20;;;;;;4943977;29;20051;-64
2021/06/16 08:31:11;;;;;;;11.20;4.53;;;22.40;57.80;;;;;;4943553;29;20078;-63
2021/06/16 08:33:39;;;;;;;11.68;3.85;;;22.40;57.50;;;;;;4943860;29;20157;-63
2021/06/16 08:36:06;;;;;;;9.52;4.43;;;22.30;57.50;;;;;;4941453;29;20057;-63
2021/06/16 08:38:32;;;;;;;11.15;4.90;;;22.40;56.90;;;;;;4943177;29;20169;-64
2021/06/16 08:41:06;;;;;;;8.48;4.00;;;22.40;56.90;;;;;;4926312;29;20054;-64
2021/06/16 08:43:37;;;;;;;14.75;4.78;;;22.60;57.30;;;;;;4941379;29;20031;-65
2021/06/16 08:46:07;;;;;;;14.65;3.88;;;22.70;57.10;;;;;;4925586;29;20603;-65
2021/06/16 08:48:35;;;;;;;10.68;4.30;;;22.90;56.90;;;;;;4942184;29;20039;-64
2021/06/16 08:51:02;;;;;;;11.43;4.50;;;23.00;56.00;;;;;;4944276;29;20125;-65
2021/06/16 08:53:29;;;;;;;8.85;4.50;;;23.00;55.90;;;;;;4942079;29;20111;-65
2021/06/16 08:55:55;;;;;;;9.10;3.50;;;23.10;55.40;;;;;;4942133;29;20039;-64
2021/06/16 08:58:21;;;;;;;13.27;4.13;;;23.20;56.10;;;;;;4943627;29;20042;-64
2021/06/16 09:00:47;;;;;;;9.07;3.67;;;23.20;55.10;;;;;;4943050;29;20050;-64
2021/06/16 09:03:12;;;;;;;8.30;3.67;;;23.20;54.30;;;;;;4941548;29;20512;-64
2021/06/16 09:05:40;;;;;;;9.85;3.58;;;23.20;53.80;;;;;;4943236;29;20126;-64
2021/06/16 09:08:17;;;;;;;12.65;3.75;;;23.10;53.20;;;;;;4942445;29;20127;-64
2021/06/16 09:10:48;;;;;;;8.98;2.78;;;23.10;53.40;;;;;;4941489;29;20121;-64
2021/06/16 09:13:28;;;;;;;8.68;3.33;;;23.10;53.00;;;;;;4943250;29;20039;-64
2021/06/16 09:15:54;;;;;;;8.93;2.83;;;23.10;52.30;;;;;;4943168;29;20045;-64
2021/06/16 09:18:20;;;;;;;8.90;3.20;;;23.10;52.70;;;;;;4941478;29;20039;-64
2021/06/16 09:20:47;;;;;;;8.20;2.80;;;23.20;53.10;;;;;;4942598;29;20046;-63
2021/06/16 09:23:25;;;;;;;9.00;3.38;;;23.30;52.70;;;;;;4942711;29;20046;-63
2021/06/16 09:26:18;;;;;;;10.75;2.60;;;23.40;51.70;;;;;;4941638;29;20122;-63
2021/06/16 09:28:50;;;;;;;7.30;2.80;;;23.60;52.30;;;;;;4941593;29;20039;-63
2021/06/16 09:31:18;;;;;;;13.30;2.33;;;23.70;50.50;;;;;;4941964;29;20070;-63
2021/06/16 09:33:45;;;;;;;9.00;3.10;;;23.70;51.10;;;;;;4926547;29;20492;-63
2021/06/16 09:36:14;;;;;;;10.73;2.88;;;23.70;50.20;;;;;;4941445;28;20603;-63
2021/06/16 09:38:42;;;;;;;10.80;3.47;;;23.60;50.00;;;;;;4941374;29;20155;-63
2021/06/16 09:41:10;;;;;;;10.15;3.47;;;23.50;50.30;;;;;;4941480;29;20047;-63
2021/06/16 09:43:36;;;;;;;10.07;2.90;;;23.60;50.90;;;;;;4941389;29;20059;-64
2021/06/16 09:46:05;;;;;;;8.40;3.80;;;23.70;50.40;;;;;;4941242;29;20050;-64
2021/06/16 09:48:33;;;;;;;10.85;3.53;;;23.80;49.70;;;;;;4941688;29;20042;-64
2021/06/16 09:51:22;;;;;;;12.07;2.90;;;23.90;50.40;;;;;;4943587;29;20044;-64
2021/06/16 09:54:14;;;;;;;7.80;2.60;;;23.80;49.90;;;;;;4940547;29;20051;-64
2021/06/16 09:56:51;;;;;;;8.15;2.88;;;23.90;49.40;;;;;;4940757;29;20059;-64
2021/06/16 09:59:42;;;;;;;7.70;2.83;;;23.80;49.00;;;;;;4940667;29;20067;-64
2021/06/16 10:02:18;;;;;;;13.27;2.72;;;23.80;49.20;;;;;;4942435;29;20453;-64
2021/06/16 10:04:46;;;;;;;9.05;2.55;;;23.90;49.30;;;;;;4941456;29;20043;-64
2021/06/16 10:07:20;;;;;;;8.85;2.65;;;23.90;48.90;;;;;;4941759;29;20050;-63
2021/06/16 10:09:48;;;;;;;9.70;2.35;;;23.90;48.10;;;;;;4941487;29;20118;-64
2021/06/16 10:12:15;;;;;;;6.30;2.03;;;24.00;47.30;;;;;;4923952;29;20344;-64
2021/06/16 10:14:41;;;;;;;6.55;2.28;;;24.00;46.30;;;;;;4941893;29;20189;-64
2021/06/16 10:17:07;;;;;;;8.20;2.47;;;24.10;47.10;;;;;;4941195;29;20045;-63
2021/06/16 10:19:36;;;;;;;11.35;2.80;;;24.40;47.10;;;;;;4942204;29;20039;-63
2021/06/16 10:22:03;;;;;;;18.85;2.80;;;24.70;47.00;;;;;;4940066;29;20166;-63
2021/06/16 10:24:29;;;;;;;7.10;2.15;;;24.80;45.20;;;;;;4940388;29;20094;-63
2021/06/16 10:26:59;;;;;;;6.18;2.67;;;24.70;45.00;;;;;;4942873;29;20503;-63
2021/06/16 10:29:31;;;;;;;5.50;2.00;;;24.70;44.90;;;;;;4940602;29;20040;-63
2021/06/16 10:32:05;;;;;;;12.10;2.97;;;24.70;45.90;;;;;;4939971;29;20051;-63
2021/06/16 10:34:53;;;;;;;8.40;2.47;;;24.80;45.80;;;;;;4941658;29;20055;-63
2021/06/16 10:37:28;;;;;;;6.53;2.17;;;24.80;46.10;;;;;;4939111;29;20126;-63
2021/06/16 10:40:15;;;;;;;6.15;2.00;;;24.80;44.40;;;;;;4939639;29;20047;-64
2021/06/16 10:43:03;;;;;;;7.07;1.92;;;24.80;45.10;;;;;;4940728;29;20495;-63
2021/06/16 10:45:31;;;;;;;10.00;2.10;;;24.90;44.70;;;;;;4941146;29;20047;-63
2021/06/16 10:47:59;;;;;;;6.35;2.15;;;25.00;44.40;;;;;;4939582;29;20071;-63
2021/06/16 10:50:46;;;;;;;8.50;1.90;;;25.10;44.20;;;;;;4940587;29;20039;-63
2021/06/16 10:53:17;;;;;;;7.18;2.38;;;25.10;43.80;;;;;;4940606;29;20069;-63
2021/06/16 10:55:52;;;;;;;6.20;2.00;;;25.00;43.20;;;;;;4940343;29;20110;-62
2021/06/16 10:58:25;;;;;;;7.88;1.77;;;24.90;43.80;;;;;;4942358;29;20175;-62
2021/06/16 11:01:13;;;;;;;7.82;2.13;;;25.00;43.90;;;;;;4922616;29;20123;-63
2021/06/16 11:03:51;;;;;;;4.78;1.63;;;25.20;43.40;;;;;;4940319;28;20070;-63
2021/06/16 11:06:32;;;;;;;9.07;2.40;;;25.20;42.80;;;;;;4940775;29;20070;-64
2021/06/16 11:08:58;;;;;;;4.60;1.75;;;25.10;43.10;;;;;;4940210;29;20035;-63
2021/06/16 11:11:50;;;;;;;5.97;2.45;;;25.00;42.80;;;;;;4940279;29;20337;-63
2021/06/16 11:14:38;;;;;;;6.13;1.88;;;25.00;43.30;;;;;;4941326;29;20597;-63
2021/06/16 11:17:09;;;;;;;4.47;1.65;;;25.00;42.80;;;;;;4939210;29;20540;-63
2021/06/16 11:19:35;;;;;;;8.32;2.47;;;25.00;44.00;;;;;;4939663;29;20039;-63
2021/06/16 11:22:08;;;;;;;7.10;1.70;;;25.10;43.10;;;;;;4940614;29;20771;-66
2021/06/16 11:25:05;;;;;;;9.18;2.00;;;25.00;41.80;;;;;;4940252;29;20074;-66
2021/06/16 11:27:53;;;;;;;4.75;1.67;;;24.90;40.90;;;;;;4940199;29;20130;-66
2021/06/16 11:30:53;;;;;;;4.68;1.80;;;24.80;41.20;;;;;;4924961;29;20051;-67
2021/06/16 11:33:20;;;;;;;10.20;1.58;;;24.70;41.20;;;;;;4923716;29;20043;-67
2021/06/16 11:35:55;;;;;;;7.60;1.73;;;24.80;42.30;;;;;;4941375;29;20067;-66
2021/06/16 11:38:21;;;;;;;7.53;1.90;;;24.80;42.50;;;;;;4923541;29;20424;-67
2021/06/16 11:40:56;;;;;;;8.57;2.42;;;24.80;42.00;;;;;;4939520;29;20039;-67
2021/06/16 11:43:34;;;;;;;7.15;1.67;;;24.90;41.70;;;;;;4939678;29;20126;-67
2021/06/16 11:46:02;;;;;;;7.85;2.72;;;25.10;42.60;;;;;;4940449;29;20440;-67
2021/06/16 11:48:28;;;;;;;6.35;2.10;;;25.10;42.00;;;;;;4939934;29;20043;-67
2021/06/16 11:50:54;;;;;;;11.38;2.35;;;25.10;42.00;;;;;;4922381;29;20385;-68
2021/06/16 11:53:34;;;;;;;9.52;2.00;;;25.20;42.20;;;;;;4940802;29;20053;-67
2021/06/16 11:56:08;;;;;;;7.15;2.08;;;25.30;42.80;;;;;;4939744;29;20111;-67
2021/06/16 11:58:37;;;;;;;7.82;1.73;;;25.30;41.40;;;;;;4937425;29;20043;-68
2021/06/16 12:01:09;;;;;;;5.13;1.98;;;25.20;40.40;;;;;;4938998;29;20083;-68
2021/06/16 12:03:36;;;;;;;9.40;5.43;;;25.20;40.10;;;;;;4938657;29;20040;-67
2021/06/16 12:06:08;;;;;;;6.55;1.48;;;25.20;40.60;;;;;;4938143;29;20050;-68
2021/06/16 12:08:35;;;;;;;7.93;2.33;;;25.30;40.90;;;;;;4939149;29;20046;-68
2021/06/16 12:11:02;;;;;;;7.68;2.15;;;25.30;40.70;;;;;;4938511;29;20032;-68
2021/06/16 12:13:28;;;;;;;5.82;1.80;;;25.40;41.20;;;;;;4938009;29;20039;-68
2021/06/16 12:15:54;;;;;;;8.55;2.35;;;25.40;41.70;;;;;;4938966;29;20081;-68
2021/06/16 12:18:20;;;;;;;6.15;1.92;;;25.40;42.50;;;;;;4939258;29;20106;-68
2021/06/16 12:20:54;;;;;;;10.82;2.22;;;25.60;44.90;;;;;;4938577;29;20031;-68
2021/06/16 12:23:37;;;;;;;6.93;1.90;;;25.60;40.70;;;;;;4938712;29;20039;-68
2021/06/16 12:26:14;;;;;;;13.45;1.55;;;25.50;40.60;;;;;;4939115;29;20122;-68
2021/06/16 12:28:48;;;;;;;11.23;2.10;;;25.60;40.70;;;;;;4937725;29;20044;-66
2021/06/16 12:31:46;;;;;;;9.00;1.77;;;25.60;43.10;;;;;;4937472;29;20515;-66
2021/06/16 12:37:15;;;;;;;3.78;1.17;;;25.70;40.90;;;;;;4939536;29;20035;-66
2021/06/16 12:40:01;;;;;;;5.30;1.20;;;25.70;39.20;;;;;;4937091;29;20040;-66
2021/06/16 12:42:39;;;;;;;7.93;2.00;;;25.70;40.80;;;;;;4921905;29;20083;-66
2021/06/16 12:45:24;;;;;;;10.00;1.70;;;25.80;42.90;;;;;;4937954;29;20046;-66
2021/06/16 12:47:50;;;;;;;7.57;2.08;;;25.90;42.60;;;;;;4924267;29;20657;-66
2021/06/16 12:50:25;;;;;;;10.88;1.60;;;25.90;43.30;;;;;;4939948;29;20661;-66
2021/06/16 12:52:51;;;;;;;4.32;1.33;;;25.90;43.00;;;;;;4938851;29;20062;-65